This is the latest recevied weather packets stored in our database for station/object DL4ABR-6. If no packets are shown the sender has not sent any weather packets the latest 10 day(s).
| Time | Temp. | Humidity | Pressure | Rain* | Wind** | Luminosity | Snow |
|---|---|---|---|---|---|---|---|
| 1777608263 | 1.67° C | 95% | 1025.4 hPa | 0 mm | - | - | - |
| 1777607450 | 1.67° C | 95% | 1025.3 hPa | 0 mm | - | - | - |
| 1777606700 | 2.22° C | 94% | 1025.4 hPa | 0 mm | - | - | - |
| 1777605955 | 2.22° C | 94% | 1025.5 hPa | 0 mm | - | - | - |
| 1777605090 | 2.22° C | 94% | 1025.2 hPa | 0 mm | - | - | - |
| 1777604320 | 2.22° C | 94% | 1025.4 hPa | 0 mm | - | - | - |
| 1777603464 | 2.78° C | 93% | 1025.4 hPa | 0 mm | - | - | - |
| 1777602744 | 2.78° C | 93% | 1025.4 hPa | 0 mm | - | - | - |
| 1777602010 | 2.78° C | 92% | 1025.6 hPa | 0 mm | - | - | - |
| 1777601244 | 2.78° C | 92% | 1025.6 hPa | 0 mm | - | - | - |
| 1777586728 | 6.67° C | 81% | 1025.7 hPa | 0 mm | - | - | - |
| 1777583288 | 7.78° C | 76% | 1025.7 hPa | 0 mm | - | - | - |
| 1777582527 | 8.33° C | 75% | 1025.6 hPa | 0 mm | - | - | - |
| 1777580054 | 9.44° C | 69% | 1025.6 hPa | 0 mm | - | - | - |
| 1777579155 | 10.56° C | 67% | 1025.4 hPa | 0 mm | - | - | - |
| 1777578324 | 10.56° C | 65% | 1025.6 hPa | 0 mm | - | - | - |
| 1777577526 | 11.67° C | 67% | 1025.4 hPa | 0 mm | - | - | - |
| 1777576740 | 12.22° C | 62% | 1025.4 hPa | 0 mm | - | - | - |
| 1777569762 | 18.89° C | 42% | 1025.2 hPa | 0 mm | - | - | - |
| 1777565614 | 20° C | 37% | 1025.6 hPa | 0 mm | - | - | - |
| 1777563115 | 20° C | 36% | 1025.8 hPa | 0 mm | - | - | - |
| 1777562226 | 19.44° C | 36% | 1025.8 hPa | 0 mm | - | - | - |
| 1777556644 | 18.89° C | 35% | 1026.6 hPa | 0 mm | - | - | - |
| 1777555864 | 18.89° C | 34% | 1026.6 hPa | 0 mm | - | - | - |
| 1777554290 | 19.44° C | 35% | 1027 hPa | 0 mm | - | - | - |
* Rain since midnight (hover to see other rain measurements)
** Current wind speed in m/s (hover to see current wind gust speed)